sensor_id;sensor_type;location;lat;lon;timestamp;pressure;altitude;pressure_sealevel;temperature;humidity
10688;BME280;5392;42.688;23.298;2022-11-09T00:01:38;57509.44;;;-144.48;100.00
10688;BME280;5392;42.688;23.298;2022-11-09T00:04:06;57544.94;;;-144.48;100.00
10688;BME280;5392;42.688;23.298;2022-11-09T00:06:33;57530.31;;;-144.48;100.00
10688;BME280;5392;42.688;23.298;2022-11-09T00:09:03;57588.75;;;-144.48;100.00
10688;BME280;5392;42.688;23.298;2022-11-09T00:11:34;57526.13;;;-144.48;100.00
10688;BME280;5392;42.688;23.298;2022-11-09T00:14:01;57536.56;;;-144.48;100.00
10688;BME280;5392;42.688;23.298;2022-11-09T00:16:27;57559.53;;;-144.48;100.00
10688;BME280;5392;42.688;23.298;2022-11-09T00:18:54;57501.09;;;-144.48;100.00
10688;BME280;5392;42.688;23.298;2022-11-09T00:21:22;57511.53;;;-144.48;100.00
10688;BME280;5392;42.688;23.298;2022-11-09T00:23:50;57494.81;;;-144.48;100.00
10688;BME280;5392;42.688;23.298;2022-11-09T00:26:18;57544.94;;;-144.48;100.00
10688;BME280;5392;42.688;23.298;2022-11-09T00:28:46;57534.50;;;-144.48;100.00
10688;BME280;5392;42.688;23.298;2022-11-09T00:31:15;57540.75;;;-144.48;100.00
10688;BME280;5392;42.688;23.298;2022-11-09T00:33:46;57496.91;;;-144.48;100.00
10688;BME280;5392;42.688;23.298;2022-11-09T00:36:13;57544.94;;;-144.48;100.00
10688;BME280;5392;42.688;23.298;2022-11-09T00:38:40;57526.13;;;-144.48;100.00
10688;BME280;5392;42.688;23.298;2022-11-09T00:41:09;57542.84;;;-144.48;100.00
10688;BME280;5392;42.688;23.298;2022-11-09T00:43:36;57528.22;;;-144.48;100.00
10688;BME280;5392;42.688;23.298;2022-11-09T00:46:03;57526.13;;;-144.48;100.00
10688;BME280;5392;42.688;23.298;2022-11-09T00:48:31;57572.06;;;-144.48;100.00
10688;BME280;5392;42.688;23.298;2022-11-09T00:50:58;57559.53;;;-144.48;100.00
10688;BME280;5392;42.688;23.298;2022-11-09T00:53:25;57526.13;;;-144.48;100.00
10688;BME280;5392;42.688;23.298;2022-11-09T00:55:54;57538.66;;;-144.48;100.00
10688;BME280;5392;42.688;23.298;2022-11-09T00:58:21;57551.19;;;-144.48;100.00
10688;BME280;5392;42.688;23.298;2022-11-09T01:00:47;57528.22;;;-144.48;100.00
10688;BME280;5392;42.688;23.298;2022-11-09T01:03:14;57549.09;;;-144.48;100.00
10688;BME280;5392;42.688;23.298;2022-11-09T01:05:41;57524.06;;;-144.48;100.00
10688;BME280;5392;42.688;23.298;2022-11-09T01:08:08;57538.66;;;-144.48;100.00
10688;BME280;5392;42.688;23.298;2022-11-09T01:10:39;57540.75;;;-144.48;100.00
10688;BME280;5392;42.688;23.298;2022-11-09T01:13:05;57567.88;;;-144.48;100.00
10688;BME280;5392;42.688;23.298;2022-11-09T01:15:32;57526.13;;;-144.48;100.00
10688;BME280;5392;42.688;23.298;2022-11-09T01:17:59;57503.19;;;-144.48;100.00
10688;BME280;5392;42.688;23.298;2022-11-09T01:20:25;57501.09;;;-144.48;100.00
10688;BME280;5392;42.688;23.298;2022-11-09T01:22:53;57507.34;;;-144.48;100.00
10688;BME280;5392;42.688;23.298;2022-11-09T01:25:20;57530.31;;;-144.48;100.00
10688;BME280;5392;42.688;23.298;2022-11-09T01:27:46;57515.69;;;-144.48;100.00
10688;BME280;5392;42.688;23.298;2022-11-09T01:30:13;57521.97;;;-144.48;100.00
10688;BME280;5392;42.688;23.298;2022-11-09T01:32:40;57530.31;;;-144.48;100.00
10688;BME280;5392;42.688;23.298;2022-11-09T01:35:07;57555.38;;;-144.48;100.00
10688;BME280;5392;42.688;23.298;2022-11-09T01:37:34;57526.13;;;-144.48;100.00
10688;BME280;5392;42.688;23.298;2022-11-09T01:40:00;57563.72;;;-144.48;100.00
10688;BME280;5392;42.688;23.298;2022-11-09T01:42:28;57534.50;;;-144.48;100.00
10688;BME280;5392;42.688;23.298;2022-11-09T01:47:44;57555.38;;;-144.48;100.00
10688;BME280;5392;42.688;23.298;2022-11-09T01:50:15;57542.84;;;-144.48;100.00
10688;BME280;5392;42.688;23.298;2022-11-09T01:52:47;57555.38;;;-144.48;100.00
10688;BME280;5392;42.688;23.298;2022-11-09T01:55:17;57530.31;;;-144.48;100.00
10688;BME280;5392;42.688;23.298;2022-11-09T01:57:47;57549.09;;;-144.48;100.00
10688;BME280;5392;42.688;23.298;2022-11-09T02:00:16;57507.34;;;-144.48;100.00
10688;BME280;5392;42.688;23.298;2022-11-09T02:02:47;57572.06;;;-144.48;100.00
10688;BME280;5392;42.688;23.298;2022-11-09T02:05:18;57538.66;;;-144.48;100.00
10688;BME280;5392;42.688;23.298;2022-11-09T02:07:47;57551.19;;;-144.48;100.00
10688;BME280;5392;42.688;23.298;2022-11-09T02:10:28;57551.19;;;-144.48;100.00
10688;BME280;5392;42.688;23.298;2022-11-09T02:12:57;57580.41;;;-144.48;100.00
10688;BME280;5392;42.688;23.298;2022-11-09T02:15:25;57534.50;;;-144.48;100.00
10688;BME280;5392;42.688;23.298;2022-11-09T02:17:53;57580.41;;;-144.48;100.00
10688;BME280;5392;42.688;23.298;2022-11-09T02:20:21;57542.84;;;-144.48;100.00
10688;BME280;5392;42.688;23.298;2022-11-09T02:22:48;57551.19;;;-144.48;100.00
10688;BME280;5392;42.688;23.298;2022-11-09T02:25:15;57507.34;;;-144.48;100.00
10688;BME280;5392;42.688;23.298;2022-11-09T02:27:43;57530.31;;;-144.48;100.00
10688;BME280;5392;42.688;23.298;2022-11-09T02:30:10;57534.50;;;-144.48;100.00
10688;BME280;5392;42.688;23.298;2022-11-09T02:32:38;57555.38;;;-144.48;100.00
10688;BME280;5392;42.688;23.298;2022-11-09T02:35:04;57555.38;;;-144.48;100.00
10688;BME280;5392;42.688;23.298;2022-11-09T02:37:37;57536.56;;;-144.48;100.00
10688;BME280;5392;42.688;23.298;2022-11-09T02:40:12;57532.41;;;-144.48;100.00
10688;BME280;5392;42.688;23.298;2022-11-09T02:42:42;57538.66;;;-144.48;100.00
10688;BME280;5392;42.688;23.298;2022-11-09T02:45:09;57517.78;;;-144.48;100.00
10688;BME280;5392;42.688;23.298;2022-11-09T02:47:36;57515.69;;;-144.48;100.00
10688;BME280;5392;42.688;23.298;2022-11-09T02:50:03;57553.28;;;-144.48;100.00
10688;BME280;5392;42.688;23.298;2022-11-09T02:52:30;57526.13;;;-144.48;100.00
10688;BME280;5392;42.688;23.298;2022-11-09T02:54:56;57549.09;;;-144.48;100.00
10688;BME280;5392;42.688;23.298;2022-11-09T02:57:23;57526.13;;;-144.48;100.00
10688;BME280;5392;42.688;23.298;2022-11-09T02:59:49;57534.50;;;-144.48;100.00
10688;BME280;5392;42.688;23.298;2022-11-09T03:02:16;57521.97;;;-144.48;100.00
10688;BME280;5392;42.688;23.298;2022-11-09T03:04:43;57557.44;;;-144.48;100.00
10688;BME280;5392;42.688;23.298;2022-11-09T03:07:09;57524.06;;;-144.48;100.00
10688;BME280;5392;42.688;23.298;2022-11-09T03:09:36;57561.63;;;-144.48;100.00
10688;BME280;5392;42.688;23.298;2022-11-09T03:12:03;57538.66;;;-144.48;100.00
10688;BME280;5392;42.688;23.298;2022-11-09T03:14:50;57519.88;;;-144.48;100.00
10688;BME280;5392;42.688;23.298;2022-11-09T03:17:16;57580.41;;;-144.48;100.00
10688;BME280;5392;42.688;23.298;2022-11-09T03:19:44;57538.66;;;-144.48;100.00
10688;BME280;5392;42.688;23.298;2022-11-09T03:22:10;57494.81;;;-144.48;100.00
10688;BME280;5392;42.688;23.298;2022-11-09T03:24:37;57505.25;;;-144.48;100.00
10688;BME280;5392;42.688;23.298;2022-11-09T03:27:04;57536.56;;;-144.48;100.00
10688;BME280;5392;42.688;23.298;2022-11-09T03:29:30;57517.78;;;-144.48;100.00
10688;BME280;5392;42.688;23.298;2022-11-09T03:31:57;57515.69;;;-144.48;100.00
10688;BME280;5392;42.688;23.298;2022-11-09T03:34:24;57526.13;;;-144.48;100.00
10688;BME280;5392;42.688;23.298;2022-11-09T03:36:50;57496.91;;;-144.48;100.00
10688;BME280;5392;42.688;23.298;2022-11-09T03:39:17;57492.75;;;-144.48;100.00
10688;BME280;5392;42.688;23.298;2022-11-09T03:41:44;57538.66;;;-144.48;100.00
10688;BME280;5392;42.688;23.298;2022-11-09T03:44:10;57524.06;;;-144.48;100.00
10688;BME280;5392;42.688;23.298;2022-11-09T03:46:37;57532.41;;;-144.48;100.00
10688;BME280;5392;42.688;23.298;2022-11-09T03:49:04;57530.31;;;-144.48;100.00
10688;BME280;5392;42.688;23.298;2022-11-09T03:51:31;57505.25;;;-144.48;100.00
10688;BME280;5392;42.688;23.298;2022-11-09T03:53:57;57538.66;;;-144.48;100.00
10688;BME280;5392;42.688;23.298;2022-11-09T03:56:24;57547.00;;;-144.48;100.00
10688;BME280;5392;42.688;23.298;2022-11-09T03:58:51;57580.41;;;-144.48;100.00
10688;BME280;5392;42.688;23.298;2022-11-09T04:01:17;57540.75;;;-144.48;100.00
10688;BME280;5392;42.688;23.298;2022-11-09T04:03:44;57517.78;;;-144.48;100.00
10688;BME280;5392;42.688;23.298;2022-11-09T04:06:10;57572.06;;;-144.48;100.00
10688;BME280;5392;42.688;23.298;2022-11-09T04:08:37;57561.63;;;-144.48;100.00
10688;BME280;5392;42.688;23.298;2022-11-09T04:11:04;57505.25;;;-144.48;100.00
10688;BME280;5392;42.688;23.298;2022-11-09T04:13:31;57569.97;;;-144.48;100.00
10688;BME280;5392;42.688;23.298;2022-11-09T04:15:58;57567.88;;;-144.48;100.00
10688;BME280;5392;42.688;23.298;2022-11-09T04:18:24;57513.63;;;-144.48;100.00
10688;BME280;5392;42.688;23.298;2022-11-09T04:20:51;57547.00;;;-144.48;100.00
10688;BME280;5392;42.688;23.298;2022-11-09T04:23:18;57551.19;;;-144.48;100.00
10688;BME280;5392;42.688;23.298;2022-11-09T04:25:45;57557.44;;;-144.48;100.00
10688;BME280;5392;42.688;23.298;2022-11-09T04:28:12;57576.22;;;-144.48;100.00
10688;BME280;5392;42.688;23.298;2022-11-09T04:30:38;57547.00;;;-144.48;100.00
10688;BME280;5392;42.688;23.298;2022-11-09T04:33:05;57561.63;;;-144.48;100.00
10688;BME280;5392;42.688;23.298;2022-11-09T04:35:33;57528.22;;;-144.48;100.00
10688;BME280;5392;42.688;23.298;2022-11-09T04:38:11;57505.25;;;-144.48;100.00
10688;BME280;5392;42.688;23.298;2022-11-09T04:40:38;57499.00;;;-144.48;100.00
10688;BME280;5392;42.688;23.298;2022-11-09T04:43:06;57534.50;;;-144.48;100.00
10688;BME280;5392;42.688;23.298;2022-11-09T04:45:34;57530.31;;;-144.48;100.00
10688;BME280;5392;42.688;23.298;2022-11-09T04:48:03;57536.56;;;-144.48;100.00
10688;BME280;5392;42.688;23.298;2022-11-09T04:50:30;57524.06;;;-144.48;100.00
10688;BME280;5392;42.688;23.298;2022-11-09T04:53:09;57544.94;;;-144.48;100.00
10688;BME280;5392;42.688;23.298;2022-11-09T04:55:36;57553.28;;;-144.48;100.00
10688;BME280;5392;42.688;23.298;2022-11-09T04:58:03;57532.41;;;-144.48;100.00
10688;BME280;5392;42.688;23.298;2022-11-09T05:00:31;57544.94;;;-144.48;100.00
10688;BME280;5392;42.688;23.298;2022-11-09T05:03:00;57521.97;;;-144.48;100.00
10688;BME280;5392;42.688;23.298;2022-11-09T05:05:27;57526.13;;;-144.48;100.00
10688;BME280;5392;42.688;23.298;2022-11-09T05:07:54;57530.31;;;-144.48;100.00
10688;BME280;5392;42.688;23.298;2022-11-09T05:10:21;57534.50;;;-144.48;100.00
10688;BME280;5392;42.688;23.298;2022-11-09T05:12:48;57530.31;;;-144.48;100.00
10688;BME280;5392;42.688;23.298;2022-11-09T05:15:15;57532.41;;;-144.48;100.00
10688;BME280;5392;42.688;23.298;2022-11-09T05:17:42;57540.75;;;-144.48;100.00
10688;BME280;5392;42.688;23.298;2022-11-09T05:20:09;57534.50;;;-144.48;100.00
10688;BME280;5392;42.688;23.298;2022-11-09T05:22:38;57517.78;;;-144.48;100.00
10688;BME280;5392;42.688;23.298;2022-11-09T05:25:24;57534.50;;;-144.48;100.00
10688;BME280;5392;42.688;23.298;2022-11-09T05:27:51;57519.88;;;-144.48;100.00
10688;BME280;5392;42.688;23.298;2022-11-09T05:30:17;57505.25;;;-144.48;100.00
10688;BME280;5392;42.688;23.298;2022-11-09T05:32:44;57519.88;;;-144.48;100.00
10688;BME280;5392;42.688;23.298;2022-11-09T05:35:11;57576.22;;;-144.48;100.00
10688;BME280;5392;42.688;23.298;2022-11-09T05:37:38;57505.25;;;-144.48;100.00
10688;BME280;5392;42.688;23.298;2022-11-09T05:40:07;57540.75;;;-144.48;100.00
10688;BME280;5392;42.688;23.298;2022-11-09T05:42:38;57563.72;;;-144.48;100.00
10688;BME280;5392;42.688;23.298;2022-11-09T05:45:07;57534.50;;;-144.48;100.00
10688;BME280;5392;42.688;23.298;2022-11-09T05:47:54;57490.66;;;-144.48;100.00
10688;BME280;5392;42.688;23.298;2022-11-09T05:50:21;57530.31;;;-144.48;100.00
10688;BME280;5392;42.688;23.298;2022-11-09T05:52:48;57576.22;;;-144.48;100.00
10688;BME280;5392;42.688;23.298;2022-11-09T05:55:14;57536.56;;;-144.48;100.00
10688;BME280;5392;42.688;23.298;2022-11-09T05:57:41;57517.78;;;-144.48;100.00
10688;BME280;5392;42.688;23.298;2022-11-09T06:00:08;57574.16;;;-144.48;100.00
10688;BME280;5392;42.688;23.298;2022-11-09T06:02:36;57559.53;;;-144.48;100.00
10688;BME280;5392;42.688;23.298;2022-11-09T06:05:04;57534.50;;;-144.48;100.00
10688;BME280;5392;42.688;23.298;2022-11-09T06:07:31;57521.97;;;-144.48;100.00
10688;BME280;5392;42.688;23.298;2022-11-09T06:09:58;57509.44;;;-144.48;100.00
10688;BME280;5392;42.688;23.298;2022-11-09T06:12:25;57526.13;;;-144.48;100.00
10688;BME280;5392;42.688;23.298;2022-11-09T06:14:51;57540.75;;;-144.48;100.00
10688;BME280;5392;42.688;23.298;2022-11-09T06:17:18;57517.78;;;-144.48;100.00
10688;BME280;5392;42.688;23.298;2022-11-09T06:19:45;57494.81;;;-144.48;100.00
10688;BME280;5392;42.688;23.298;2022-11-09T06:22:11;57542.84;;;-144.48;100.00
10688;BME280;5392;42.688;23.298;2022-11-09T06:24:38;57551.19;;;-144.48;100.00
10688;BME280;5392;42.688;23.298;2022-11-09T06:27:05;57521.97;;;-144.48;100.00
10688;BME280;5392;42.688;23.298;2022-11-09T06:29:32;57553.28;;;-144.48;100.00
10688;BME280;5392;42.688;23.298;2022-11-09T06:31:58;57526.13;;;-144.48;100.00
10688;BME280;5392;42.688;23.298;2022-11-09T06:34:25;57503.19;;;-144.48;100.00
10688;BME280;5392;42.688;23.298;2022-11-09T06:36:52;57519.88;;;-144.48;100.00
10688;BME280;5392;42.688;23.298;2022-11-09T06:39:19;57517.78;;;-144.48;100.00
10688;BME280;5392;42.688;23.298;2022-11-09T06:41:46;57538.66;;;-144.48;100.00
10688;BME280;5392;42.688;23.298;2022-11-09T06:44:13;57521.97;;;-144.48;100.00
10688;BME280;5392;42.688;23.298;2022-11-09T06:46:40;57513.63;;;-144.48;100.00
10688;BME280;5392;42.688;23.298;2022-11-09T06:49:07;57513.63;;;-144.48;100.00
10688;BME280;5392;42.688;23.298;2022-11-09T06:51:34;57576.22;;;-144.48;100.00
10688;BME280;5392;42.688;23.298;2022-11-09T06:54:01;57534.50;;;-144.48;100.00
10688;BME280;5392;42.688;23.298;2022-11-09T06:56:29;57538.66;;;-144.48;100.00
10688;BME280;5392;42.688;23.298;2022-11-09T06:58:55;57521.97;;;-144.48;100.00
10688;BME280;5392;42.688;23.298;2022-11-09T07:01:26;57501.09;;;-144.48;100.00
10688;BME280;5392;42.688;23.298;2022-11-09T07:03:53;57476.03;;;-144.48;100.00
10688;BME280;5392;42.688;23.298;2022-11-09T07:06:20;57486.47;;;-144.48;100.00
10688;BME280;5392;42.688;23.298;2022-11-09T07:09:04;57517.78;;;-144.48;100.00
10688;BME280;5392;42.688;23.298;2022-11-09T07:11:31;57494.81;;;-144.48;100.00
10688;BME280;5392;42.688;23.298;2022-11-09T07:13:57;57486.47;;;-144.48;94.35
10688;BME280;5392;42.688;23.298;2022-11-09T07:16:25;57513.63;;;-144.48;92.61
10688;BME280;5392;42.688;23.298;2022-11-09T07:18:52;57534.50;;;-144.48;87.87
10688;BME280;5392;42.688;23.298;2022-11-09T07:21:19;57467.69;;;-144.48;87.51
10688;BME280;5392;42.688;23.298;2022-11-09T07:23:46;57521.97;;;-144.48;90.00
10688;BME280;5392;42.688;23.298;2022-11-09T07:26:14;57496.91;;;-144.48;86.50
10688;BME280;5392;42.688;23.298;2022-11-09T07:28:41;57507.34;;;-144.48;84.54
10688;BME280;5392;42.688;23.298;2022-11-09T07:31:08;57509.44;;;-144.48;83.03
10688;BME280;5392;42.688;23.298;2022-11-09T07:33:35;57509.44;;;-144.48;82.48
10688;BME280;5392;42.688;23.298;2022-11-09T07:36:04;57505.25;;;-144.48;80.58
10688;BME280;5392;42.688;23.298;2022-11-09T07:38:30;57505.25;;;-144.48;79.55
10688;BME280;5392;42.688;23.298;2022-11-09T07:40:58;57511.53;;;-144.48;79.52
10688;BME280;5392;42.688;23.298;2022-11-09T07:43:28;57492.75;;;-144.48;79.58
10688;BME280;5392;42.688;23.298;2022-11-09T07:45:55;57496.91;;;-144.48;81.39
10688;BME280;5392;42.688;23.298;2022-11-09T07:48:21;57505.25;;;-144.48;83.27
10688;BME280;5392;42.688;23.298;2022-11-09T07:50:48;57499.00;;;-144.48;84.07
10688;BME280;5392;42.688;23.298;2022-11-09T07:53:15;57519.88;;;-144.48;88.31
10688;BME280;5392;42.688;23.298;2022-11-09T07:55:43;57513.63;;;-144.48;87.14
10688;BME280;5392;42.688;23.298;2022-11-09T07:58:12;57488.56;;;-144.48;87.61
10688;BME280;5392;42.688;23.298;2022-11-09T08:00:40;57492.75;;;-144.48;88.25
10688;BME280;5392;42.688;23.298;2022-11-09T08:03:08;57509.44;;;-144.48;88.32
10688;BME280;5392;42.688;23.298;2022-11-09T08:05:35;57553.28;;;-144.48;87.17
10688;BME280;5392;42.688;23.298;2022-11-09T08:08:04;57515.69;;;-144.48;87.38
10688;BME280;5392;42.688;23.298;2022-11-09T08:10:33;57501.09;;;-144.48;87.90
10688;BME280;5392;42.688;23.298;2022-11-09T08:13:02;57532.41;;;-144.48;87.06
10688;BME280;5392;42.688;23.298;2022-11-09T08:15:29;57517.78;;;-144.48;86.31
10688;BME280;5392;42.688;23.298;2022-11-09T08:18:01;57555.38;;;-144.48;86.65
10688;BME280;5392;42.688;23.298;2022-11-09T08:20:29;57536.56;;;-144.48;84.21
10688;BME280;5392;42.688;23.298;2022-11-09T08:22:55;57517.78;;;-144.48;83.74
10688;BME280;5392;42.688;23.298;2022-11-09T08:25:30;57519.88;;;-144.48;84.55
10688;BME280;5392;42.688;23.298;2022-11-09T08:27:57;57530.31;;;-144.48;85.65
10688;BME280;5392;42.688;23.298;2022-11-09T08:30:24;57528.22;;;-144.48;85.87
10688;BME280;5392;42.688;23.298;2022-11-09T08:32:51;57505.25;;;-144.48;85.96
10688;BME280;5392;42.688;23.298;2022-11-09T08:35:20;57509.44;;;-144.48;86.39
10688;BME280;5392;42.688;23.298;2022-11-09T08:37:49;57511.53;;;-144.48;89.20
10688;BME280;5392;42.688;23.298;2022-11-09T08:40:24;57530.31;;;-144.48;89.90
10688;BME280;5392;42.688;23.298;2022-11-09T08:42:51;57521.97;;;-144.48;89.22
10688;BME280;5392;42.688;23.298;2022-11-09T08:45:19;57536.56;;;-144.48;87.93
10688;BME280;5392;42.688;23.298;2022-11-09T08:47:46;57503.19;;;-144.48;87.09
10688;BME280;5392;42.688;23.298;2022-11-09T08:50:14;57488.56;;;-144.48;87.72
10688;BME280;5392;42.688;23.298;2022-11-09T08:52:41;57503.19;;;-144.48;87.83
10688;BME280;5392;42.688;23.298;2022-11-09T08:55:08;57524.06;;;-144.48;86.57
10688;BME280;5392;42.688;23.298;2022-11-09T08:57:35;57517.78;;;-144.48;85.81
10688;BME280;5392;42.688;23.298;2022-11-09T09:00:03;57499.00;;;-144.48;85.08
10688;BME280;5392;42.688;23.298;2022-11-09T09:02:30;57521.97;;;-144.48;83.22
10688;BME280;5392;42.688;23.298;2022-11-09T09:04:56;57515.69;;;-144.48;82.93
10688;BME280;5392;42.688;23.298;2022-11-09T09:07:23;57517.78;;;-144.48;81.87
10688;BME280;5392;42.688;23.298;2022-11-09T09:09:50;57501.09;;;-144.48;81.58
10688;BME280;5392;42.688;23.298;2022-11-09T09:12:16;57540.75;;;-144.48;80.69
10688;BME280;5392;42.688;23.298;2022-11-09T09:14:43;57517.78;;;-144.48;80.79
10688;BME280;5392;42.688;23.298;2022-11-09T09:17:10;57540.75;;;-144.48;80.48
10688;BME280;5392;42.688;23.298;2022-11-09T09:19:37;57503.19;;;-144.48;80.63
10688;BME280;5392;42.688;23.298;2022-11-09T09:22:03;57480.22;;;-144.48;81.62
10688;BME280;5392;42.688;23.298;2022-11-09T09:24:31;57501.09;;;-144.48;81.52
10688;BME280;5392;42.688;23.298;2022-11-09T09:26:58;57507.34;;;-144.48;81.29
10688;BME280;5392;42.688;23.298;2022-11-09T09:29:24;57505.25;;;-144.48;81.67
10688;BME280;5392;42.688;23.298;2022-11-09T09:31:51;57515.69;;;-144.48;81.69
10688;BME280;5392;42.688;23.298;2022-11-09T09:34:17;57542.84;;;-144.48;81.44
10688;BME280;5392;42.688;23.298;2022-11-09T09:36:44;57511.53;;;-144.48;80.09
10688;BME280;5392;42.688;23.298;2022-11-09T09:39:14;57513.63;;;-144.48;79.05
10688;BME280;5392;42.688;23.298;2022-11-09T09:41:59;57526.13;;;-144.48;78.73
10688;BME280;5392;42.688;23.298;2022-11-09T09:44:39;57519.88;;;-144.48;78.02
10688;BME280;5392;42.688;23.298;2022-11-09T09:47:24;57542.84;;;-144.48;77.21
10688;BME280;5392;42.688;23.298;2022-11-09T09:50:07;57465.59;;;-144.48;76.92
10688;BME280;5392;42.688;23.298;2022-11-09T09:55:53;57551.19;;;-144.48;77.70
10688;BME280;5392;42.688;23.298;2022-11-09T09:58:27;57492.75;;;-144.48;78.24
10688;BME280;5392;42.688;23.298;2022-11-09T10:01:02;57530.31;;;-144.48;76.96
10688;BME280;5392;42.688;23.298;2022-11-09T10:03:30;57526.13;;;-144.48;76.71
10688;BME280;5392;42.688;23.298;2022-11-09T10:17:39;57505.25;;;-144.48;73.67
10688;BME280;5392;42.688;23.298;2022-11-09T10:23:09;57567.88;;;-144.48;74.95
10688;BME280;5392;42.688;23.298;2022-11-09T10:25:43;57517.78;;;-144.48;75.99
10688;BME280;5392;42.688;23.298;2022-11-09T10:28:36;57567.88;;;-144.48;76.45
10688;BME280;5392;42.688;23.298;2022-11-09T10:31:31;57536.56;;;-144.48;74.49
10688;BME280;5392;42.688;23.298;2022-11-09T10:34:11;57540.75;;;-144.48;73.84
10688;BME280;5392;42.688;23.298;2022-11-09T10:37:03;57505.25;;;-144.48;72.28
10688;BME280;5392;42.688;23.298;2022-11-09T10:39:40;57507.34;;;-144.48;72.19
10688;BME280;5392;42.688;23.298;2022-11-09T10:42:10;57515.69;;;-144.48;72.36
10688;BME280;5392;42.688;23.298;2022-11-09T10:44:37;57519.88;;;-144.48;72.10
10688;BME280;5392;42.688;23.298;2022-11-09T10:47:08;57557.44;;;-144.48;71.00
10688;BME280;5392;42.688;23.298;2022-11-09T10:49:36;57521.97;;;-144.48;70.41
10688;BME280;5392;42.688;23.298;2022-11-09T10:52:04;57505.25;;;-144.48;70.62
10688;BME280;5392;42.688;23.298;2022-11-09T10:54:35;57542.84;;;-144.48;70.78
10688;BME280;5392;42.688;23.298;2022-11-09T10:57:17;57509.44;;;-144.48;70.87
10688;BME280;5392;42.688;23.298;2022-11-09T10:59:55;57519.88;;;-144.48;71.51
10688;BME280;5392;42.688;23.298;2022-11-09T11:07:24;57501.09;;;-144.48;70.24
10688;BME280;5392;42.688;23.298;2022-11-09T11:09:51;57492.75;;;-144.48;71.13
10688;BME280;5392;42.688;23.298;2022-11-09T11:12:18;57521.97;;;-144.48;71.26
10688;BME280;5392;42.688;23.298;2022-11-09T11:14:48;57478.13;;;-144.48;70.26
10688;BME280;5392;42.688;23.298;2022-11-09T11:17:25;57521.97;;;-144.48;69.06
10688;BME280;5392;42.688;23.298;2022-11-09T11:19:52;57484.41;;;-144.48;69.27
10688;BME280;5392;42.688;23.298;2022-11-09T11:27:43;57507.34;;;-144.48;71.72
10688;BME280;5392;42.688;23.298;2022-11-09T11:30:17;57542.84;;;-144.48;71.63
10688;BME280;5392;42.688;23.298;2022-11-09T11:32:45;57526.13;;;-144.48;70.77
10688;BME280;5392;42.688;23.298;2022-11-09T11:35:22;57521.97;;;-144.48;70.61
10688;BME280;5392;42.688;23.298;2022-11-09T11:41:19;57503.19;;;-144.48;71.17
10688;BME280;5392;42.688;23.298;2022-11-09T11:44:15;57509.44;;;-144.48;70.57
10688;BME280;5392;42.688;23.298;2022-11-09T11:52:37;57544.94;;;-144.48;68.40
10688;BME280;5392;42.688;23.298;2022-11-09T12:09:10;57501.09;;;-144.48;67.90
10688;BME280;5392;42.688;23.298;2022-11-09T12:12:22;57490.66;;;-144.48;68.17
10688;BME280;5392;42.688;23.298;2022-11-09T12:29:23;57528.22;;;-144.48;67.49
10688;BME280;5392;42.688;23.298;2022-11-09T12:34:36;57496.91;;;-144.48;68.36
10688;BME280;5392;42.688;23.298;2022-11-09T12:37:12;57528.22;;;-144.48;67.81
10688;BME280;5392;42.688;23.298;2022-11-09T12:39:47;57496.91;;;-144.48;67.78
10688;BME280;5392;42.688;23.298;2022-11-09T12:42:21;57519.88;;;-144.48;68.66
10688;BME280;5392;42.688;23.298;2022-11-09T12:47:44;57492.75;;;-144.48;69.01
10688;BME280;5392;42.688;23.298;2022-11-09T12:50:22;57530.31;;;-144.48;68.67
10688;BME280;5392;42.688;23.298;2022-11-09T12:52:51;57544.94;;;-144.48;68.19
10688;BME280;5392;42.688;23.298;2022-11-09T12:55:36;57524.06;;;-144.48;67.41
10688;BME280;5392;42.688;23.298;2022-11-09T12:58:04;57524.06;;;-144.48;68.65
10688;BME280;5392;42.688;23.298;2022-11-09T13:03:06;57517.78;;;-144.48;68.39
10688;BME280;5392;42.688;23.298;2022-11-09T13:05:40;57515.69;;;-144.48;68.90
10688;BME280;5392;42.688;23.298;2022-11-09T13:08:16;57476.03;;;-144.48;68.93
10688;BME280;5392;42.688;23.298;2022-11-09T13:10:44;57517.78;;;-144.48;68.97
10688;BME280;5392;42.688;23.298;2022-11-09T13:15:38;57480.22;;;-144.48;68.65
10688;BME280;5392;42.688;23.298;2022-11-09T13:23:49;57521.97;;;-144.48;68.29
10688;BME280;5392;42.688;23.298;2022-11-09T13:34:42;57476.03;;;-144.48;69.67
10688;BME280;5392;42.688;23.298;2022-11-09T13:37:44;57559.53;;;-144.48;69.57
10688;BME280;5392;42.688;23.298;2022-11-09T13:43:00;57492.75;;;-144.48;69.68
10688;BME280;5392;42.688;23.298;2022-11-09T13:45:36;57511.53;;;-144.48;69.52
10688;BME280;5392;42.688;23.298;2022-11-09T13:48:05;57534.50;;;-144.48;69.57
10688;BME280;5392;42.688;23.298;2022-11-09T13:50:33;57517.78;;;-144.48;68.95
10688;BME280;5392;42.688;23.298;2022-11-09T13:53:01;57494.81;;;-144.48;68.77
10688;BME280;5392;42.688;23.298;2022-11-09T13:55:35;57540.75;;;-144.48;69.21
10688;BME280;5392;42.688;23.298;2022-11-09T13:58:17;57501.09;;;-144.48;68.73
10688;BME280;5392;42.688;23.298;2022-11-09T14:00:47;57507.34;;;-144.48;68.75
10688;BME280;5392;42.688;23.298;2022-11-09T14:03:24;57507.34;;;-144.48;68.93
10688;BME280;5392;42.688;23.298;2022-11-09T14:05:57;57553.28;;;-144.48;69.81
10688;BME280;5392;42.688;23.298;2022-11-09T14:08:27;57515.69;;;-144.48;70.21
10688;BME280;5392;42.688;23.298;2022-11-09T14:22:13;57505.25;;;-144.48;71.89
10688;BME280;5392;42.688;23.298;2022-11-09T14:24:41;57488.56;;;-144.48;72.07
10688;BME280;5392;42.688;23.298;2022-11-09T14:29:37;57530.31;;;-144.48;73.04
10688;BME280;5392;42.688;23.298;2022-11-09T14:32:23;57530.31;;;-144.48;74.08
10688;BME280;5392;42.688;23.298;2022-11-09T14:34:50;57536.56;;;-144.48;74.43
10688;BME280;5392;42.688;23.298;2022-11-09T14:37:17;57526.13;;;-144.48;75.62